createdAt,value
2019-05-03T00:02:34.292Z,2.40
2019-05-03T00:05:26.735Z,1.20
2019-05-03T00:08:03.350Z,1.10
2019-05-03T00:10:33.703Z,0.83
2019-05-03T00:13:04.114Z,0.97
2019-05-03T00:16:09.108Z,0.90
2019-05-03T00:18:39.246Z,1.30
2019-05-03T00:21:09.394Z,0.70
2019-05-03T00:23:41.637Z,1.13
2019-05-03T00:26:11.979Z,0.87
2019-05-03T00:28:42.811Z,2.10
2019-05-03T00:31:13.586Z,0.80
2019-05-03T00:33:45.678Z,0.97
2019-05-03T00:36:34.816Z,0.87
2019-05-03T00:39:21.716Z,3.13
2019-05-03T00:41:52.126Z,0.93
2019-05-03T00:44:22.526Z,0.90
2019-05-03T00:46:52.654Z,0.80
2019-05-03T00:49:22.788Z,0.80
2019-05-03T00:51:52.934Z,1.13
2019-05-03T00:54:23.088Z,0.87
2019-05-03T00:56:53.154Z,1.10
2019-05-03T00:59:26.828Z,1.47
2019-05-03T01:01:57.378Z,1.63
2019-05-03T01:04:34.512Z,0.80
2019-05-03T01:07:04.586Z,2.00
2019-05-03T01:09:34.828Z,1.00
2019-05-03T01:12:04.982Z,1.00
2019-05-03T01:14:36.791Z,1.40
2019-05-03T01:17:07.106Z,1.00
2019-05-03T01:19:37.142Z,1.80
2019-05-03T01:22:07.283Z,1.30
2019-05-03T01:24:37.410Z,0.90
2019-05-03T01:27:07.491Z,1.10
2019-05-03T01:29:38.698Z,1.00
2019-05-03T01:32:09.263Z,1.10
2019-05-03T01:34:41.517Z,1.77
2019-05-03T01:37:11.960Z,1.03
2019-05-03T01:39:42.266Z,1.07
2019-05-03T01:42:12.350Z,1.13
2019-05-03T01:44:42.889Z,1.10
2019-05-03T01:47:18.380Z,2.80
2019-05-03T01:49:58.364Z,1.00
2019-05-03T01:52:34.962Z,0.90
2019-05-03T01:55:05.587Z,1.37
2019-05-03T01:57:35.664Z,1.00
2019-05-03T02:00:11.781Z,1.17
2019-05-03T02:02:59.038Z,1.03
2019-05-03T02:05:46.816Z,1.10
2019-05-03T02:08:16.934Z,1.27
2019-05-03T02:10:47.062Z,1.20
2019-05-03T02:13:17.190Z,1.50
2019-05-03T02:15:47.268Z,1.70
2019-05-03T02:18:17.424Z,1.60
2019-05-03T02:20:47.563Z,1.53
2019-05-03T02:23:17.628Z,1.47
2019-05-03T02:25:55.962Z,1.50
2019-05-03T02:28:19.608Z,1.53
2019-05-03T02:30:49.686Z,1.20
2019-05-03T02:33:20.410Z,1.47
2019-05-03T02:35:53.069Z,1.60
2019-05-03T02:38:23.367Z,1.63
2019-05-03T02:40:53.874Z,1.40
2019-05-03T02:43:28.300Z,2.17
2019-05-03T02:46:25.313Z,1.70
2019-05-03T02:49:10.430Z,1.73
2019-05-03T02:51:40.541Z,1.77
2019-05-03T02:54:10.742Z,4.67
2019-05-03T02:56:40.869Z,1.70
2019-05-03T02:59:11.018Z,1.70
2019-05-03T03:01:42.178Z,2.00
2019-05-03T03:04:15.481Z,1.70
2019-05-03T03:06:47.227Z,1.93
2019-05-03T03:09:19.097Z,2.40
2019-05-03T03:11:51.764Z,1.90
2019-05-03T03:14:25.648Z,2.40
2019-05-03T03:17:00.193Z,2.10
2019-05-03T03:19:35.153Z,2.10
2019-05-03T03:22:07.243Z,2.37
2019-05-03T03:24:40.593Z,2.47
2019-05-03T03:27:16.391Z,1.63
2019-05-03T03:29:50.215Z,1.97
2019-05-03T03:32:29.222Z,2.33
2019-05-03T03:35:21.313Z,2.00
2019-05-03T03:37:49.223Z,2.37
2019-05-03T03:40:21.095Z,2.30
2019-05-03T03:42:52.313Z,2.00
2019-05-03T03:45:25.177Z,3.03
2019-05-03T03:47:56.447Z,2.80
2019-05-03T03:50:29.819Z,2.17
2019-05-03T03:53:02.847Z,3.50
2019-05-03T03:55:35.470Z,2.03
2019-05-03T03:58:06.721Z,1.80
2019-05-03T04:00:37.340Z,1.90
2019-05-03T04:03:07.562Z,2.63
2019-05-03T04:05:38.057Z,2.43
2019-05-03T04:08:08.228Z,2.20
2019-05-03T04:10:40.151Z,4.27
2019-05-03T04:13:12.473Z,2.33
2019-05-03T04:16:00.196Z,3.40
2019-05-03T04:18:40.304Z,3.13
2019-05-03T04:21:10.907Z,2.90
2019-05-03T04:23:41.497Z,2.50
2019-05-03T04:26:12.781Z,3.00
2019-05-03T04:28:45.303Z,3.00
2019-05-03T04:31:15.512Z,3.57
2019-05-03T04:33:46.739Z,7.93
2019-05-03T04:36:16.891Z,3.73
2019-05-03T04:38:47.226Z,3.90
2019-05-03T04:41:19.248Z,4.50
2019-05-03T04:43:49.630Z,8.33
2019-05-03T04:46:22.383Z,4.93
2019-05-03T04:48:52.440Z,5.10
2019-05-03T04:51:22.583Z,7.00
2019-05-03T04:54:11.684Z,10.20
2019-05-03T04:56:41.882Z,7.90
2019-05-03T04:59:11.942Z,5.17
2019-05-03T05:01:42.054Z,6.00
2019-05-03T05:04:12.201Z,5.70
2019-05-03T05:06:44.939Z,7.60
2019-05-03T05:09:15.547Z,9.03
2019-05-03T05:11:46.159Z,7.37
2019-05-03T05:14:16.489Z,5.87
2019-05-03T05:16:46.869Z,5.80
2019-05-03T05:19:21.249Z,6.83
2019-05-03T05:21:55.750Z,7.97
2019-05-03T05:24:25.898Z,6.90
2019-05-03T05:27:11.661Z,8.63
2019-05-03T05:29:41.793Z,8.60
2019-05-03T05:32:14.354Z,8.13
2019-05-03T05:34:45.924Z,11.80
2019-05-03T05:37:15.899Z,8.27
2019-05-03T05:39:46.027Z,11.67
2019-05-03T05:42:16.195Z,8.70
2019-05-03T05:44:46.671Z,17.80
2019-05-03T05:47:34.572Z,9.20
2019-05-03T05:50:12.052Z,10.30
2019-05-03T05:52:42.286Z,10.07
2019-05-03T05:55:19.293Z,11.50
2019-05-03T05:58:04.678Z,10.60
2019-05-03T06:01:00.072Z,11.83
2019-05-03T06:03:30.236Z,13.07
2019-05-03T06:06:02.694Z,11.43
2019-05-03T06:08:57.594Z,11.77
2019-05-03T06:11:51.187Z,12.97
2019-05-03T06:14:25.153Z,10.90
2019-05-03T06:17:05.474Z,13.27
2019-05-03T06:19:46.102Z,12.57
2019-05-03T06:22:48.184Z,11.37
2019-05-03T06:25:26.549Z,11.80
2019-05-03T06:27:56.710Z,12.40
2019-05-03T06:30:35.110Z,11.60
2019-05-03T06:33:05.412Z,11.47
2019-05-03T06:35:36.237Z,12.33
2019-05-03T06:38:06.506Z,17.97
2019-05-03T06:40:37.019Z,15.93
2019-05-03T06:43:11.228Z,14.17
2019-05-03T06:45:41.092Z,15.20
2019-05-03T06:48:10.999Z,15.53
2019-05-03T06:50:41.170Z,14.73
2019-05-03T06:53:13.024Z,14.70
2019-05-03T06:55:45.580Z,17.80
2019-05-03T06:58:20.314Z,17.83
2019-05-03T07:01:11.421Z,22.80
2019-05-03T07:03:57.934Z,17.10
2019-05-03T07:06:40.958Z,21.73
2019-05-03T07:09:31.866Z,22.87
2019-05-03T07:12:02.060Z,20.20
2019-05-03T07:14:32.498Z,23.23
2019-05-03T07:17:02.656Z,22.70
2019-05-03T07:19:33.012Z,24.70
2019-05-03T07:22:04.973Z,23.13
2019-05-03T07:24:40.584Z,22.53
2019-05-03T07:27:07.305Z,18.80
2019-05-03T07:29:37.394Z,22.27
2019-05-03T07:32:07.549Z,21.13
2019-05-03T07:34:37.935Z,21.30
2019-05-03T07:37:08.087Z,19.90
2019-05-03T07:39:38.262Z,21.77
2019-05-03T07:42:08.308Z,23.00
2019-05-03T07:44:38.440Z,17.50
2019-05-03T07:47:08.585Z,21.53
2019-05-03T07:49:38.656Z,20.10
2019-05-03T07:52:11.648Z,18.67
2019-05-03T07:54:41.064Z,20.97
2019-05-03T07:57:31.688Z,19.57
2019-05-03T08:00:02.338Z,20.50
2019-05-03T08:02:32.596Z,22.13
2019-05-03T08:05:02.808Z,20.87
2019-05-03T08:07:35.648Z,22.00
2019-05-03T08:10:07.886Z,24.20
2019-05-03T08:12:38.126Z,21.30
2019-05-03T08:15:09.002Z,19.40
2019-05-03T08:17:39.476Z,24.70
2019-05-03T08:20:10.387Z,24.07
2019-05-03T08:22:40.926Z,27.50
2019-05-03T08:25:11.308Z,22.40
2019-05-03T08:27:41.546Z,22.30
2019-05-03T08:30:14.928Z,24.80
2019-05-03T08:32:55.107Z,24.07
2019-05-03T08:35:35.612Z,20.27
2019-05-03T08:38:06.016Z,24.40
2019-05-03T08:40:41.914Z,22.37
2019-05-03T08:43:11.986Z,28.90
2019-05-03T08:45:42.181Z,23.80
2019-05-03T08:48:14.870Z,22.20
2019-05-03T08:50:45.139Z,21.20
2019-05-03T08:53:15.816Z,22.20
2019-05-03T08:55:46.098Z,23.67
2019-05-03T08:58:16.164Z,26.30
2019-05-03T09:00:46.312Z,19.87
2019-05-03T09:03:16.874Z,25.70
2019-05-03T09:05:46.974Z,22.60
2019-05-03T09:08:17.196Z,21.83
2019-05-03T09:11:09.808Z,21.70
2019-05-03T09:14:08.382Z,24.63
2019-05-03T09:16:38.730Z,25.50
2019-05-03T09:19:09.339Z,25.67
2019-05-03T09:21:40.135Z,22.10
2019-05-03T09:24:10.330Z,19.67
2019-05-03T09:26:41.546Z,21.83
2019-05-03T09:29:12.110Z,18.20
2019-05-03T09:31:44.562Z,22.33
2019-05-03T09:34:14.858Z,20.43
2019-05-03T09:36:45.477Z,14.73
2019-05-03T09:39:15.963Z,13.90
2019-05-03T09:41:46.450Z,12.47
2019-05-03T09:44:16.550Z,10.67
2019-05-03T09:46:46.726Z,10.97
2019-05-03T09:49:16.904Z,11.47
2019-05-03T09:51:47.046Z,9.53
2019-05-03T09:54:22.336Z,8.73
2019-05-03T09:56:59.900Z,12.73
2019-05-03T09:59:30.643Z,8.10
2019-05-03T10:02:02.062Z,9.20
2019-05-03T10:04:32.609Z,9.07
2019-05-03T10:07:03.536Z,7.03
2019-05-03T10:09:35.500Z,10.10
2019-05-03T10:12:08.686Z,12.10
2019-05-03T10:14:39.236Z,7.23
2019-05-03T10:17:25.228Z,9.30
2019-05-03T10:19:55.469Z,7.47
2019-05-03T10:22:27.660Z,5.90
2019-05-03T10:24:58.125Z,4.50
2019-05-03T10:27:30.246Z,6.10
2019-05-03T10:30:10.483Z,5.77
2019-05-03T10:32:39.780Z,6.60
2019-05-03T10:35:11.427Z,6.73
2019-05-03T10:37:41.611Z,8.23
2019-05-03T10:40:12.239Z,6.57
2019-05-03T10:42:44.437Z,6.40
2019-05-03T10:45:15.245Z,4.10
2019-05-03T10:47:46.108Z,3.70
2019-05-03T10:50:16.614Z,3.30
2019-05-03T10:52:51.623Z,3.40
2019-05-03T10:55:21.797Z,3.50
2019-05-03T10:58:08.692Z,3.83
2019-05-03T11:00:45.270Z,4.00
2019-05-03T11:03:12.267Z,5.40
2019-05-03T11:05:42.729Z,5.13
2019-05-03T11:08:14.566Z,5.93
2019-05-03T11:10:44.960Z,5.60
2019-05-03T11:13:15.573Z,7.10
2019-05-03T11:15:45.990Z,5.50
2019-05-03T11:18:16.314Z,6.13
2019-05-03T11:20:46.527Z,5.30
2019-05-03T11:23:16.765Z,7.60
2019-05-03T11:25:46.908Z,5.07
2019-05-03T11:28:21.901Z,8.33
2019-05-03T11:30:59.097Z,3.93
2019-05-03T11:33:49.471Z,3.50
2019-05-03T11:36:51.197Z,2.83
2019-05-03T11:39:21.373Z,3.07
2019-05-03T11:41:54.831Z,2.70
2019-05-03T11:44:40.029Z,2.93
2019-05-03T11:47:10.204Z,3.10
2019-05-03T11:49:40.339Z,3.17
2019-05-03T11:52:11.739Z,4.67
2019-05-03T11:54:41.941Z,4.00
2019-05-03T11:57:19.165Z,4.17
2019-05-03T11:59:49.578Z,5.80
2019-05-03T12:02:39.455Z,4.83
2019-05-03T12:05:17.389Z,3.90
2019-05-03T12:07:47.829Z,6.20
2019-05-03T12:10:32.133Z,5.23
2019-05-03T12:12:55.299Z,4.43
2019-05-03T12:15:25.607Z,5.80
2019-05-03T12:17:59.416Z,15.63
2019-05-03T12:20:31.430Z,7.83
2019-05-03T12:23:02.116Z,10.27
2019-05-03T12:25:35.096Z,12.80
2019-05-03T12:28:05.863Z,16.10
2019-05-03T12:30:36.262Z,16.87
2019-05-03T12:33:06.445Z,15.77
2019-05-03T12:35:36.727Z,15.47
2019-05-03T12:38:06.875Z,15.60
2019-05-03T12:40:37.023Z,19.40
2019-05-03T12:43:07.217Z,15.53
2019-05-03T12:45:37.872Z,14.50
2019-05-03T12:48:08.392Z,14.73
2019-05-03T12:50:40.218Z,15.50
2019-05-03T12:53:10.692Z,13.97
2019-05-03T12:55:40.940Z,13.87
2019-05-03T12:58:11.442Z,16.40
2019-05-03T13:00:59.495Z,14.57
2019-05-03T13:03:35.986Z,14.53
2019-05-03T13:06:07.438Z,14.43
2019-05-03T13:08:45.386Z,14.77
2019-05-03T13:11:15.172Z,14.23
2019-05-03T13:13:45.411Z,16.30
2019-05-03T13:16:18.795Z,14.53
2019-05-03T13:18:49.348Z,14.33
2019-05-03T13:21:19.893Z,11.87
2019-05-03T13:23:50.073Z,14.00
2019-05-03T13:26:20.235Z,11.97
2019-05-03T13:28:50.383Z,10.90
2019-05-03T13:31:20.854Z,8.53
2019-05-03T13:33:51.140Z,8.23
2019-05-03T13:36:22.528Z,9.40
2019-05-03T13:38:54.525Z,10.13
2019-05-03T13:41:25.009Z,7.77
2019-05-03T13:43:55.346Z,7.60
2019-05-03T13:46:25.460Z,8.03
2019-05-03T13:48:55.889Z,9.77
2019-05-03T13:51:26.456Z,9.33
2019-05-03T13:53:56.593Z,7.40
2019-05-03T13:56:26.653Z,7.10
2019-05-03T13:58:56.787Z,6.93
2019-05-03T14:01:26.918Z,6.40
2019-05-03T14:03:57.011Z,6.77
2019-05-03T14:06:27.108Z,7.00
2019-05-03T14:08:57.664Z,6.83
2019-05-03T14:11:27.808Z,6.77
2019-05-03T14:13:57.887Z,7.73
2019-05-03T14:16:27.954Z,9.20
2019-05-03T14:19:05.163Z,7.73
2019-05-03T14:21:44.088Z,8.10
2019-05-03T14:24:15.808Z,8.27
2019-05-03T14:26:46.204Z,11.60
2019-05-03T14:29:16.747Z,9.30
2019-05-03T14:31:46.886Z,8.73
2019-05-03T14:34:17.627Z,7.43
2019-05-03T14:36:47.888Z,7.57
2019-05-03T14:39:19.561Z,7.70
2019-05-03T14:41:49.742Z,8.20
2019-05-03T14:44:19.902Z,9.60
2019-05-03T14:46:49.970Z,7.00
2019-05-03T14:49:20.152Z,6.90
2019-05-03T14:51:50.291Z,7.60
2019-05-03T14:54:22.440Z,7.37
2019-05-03T14:56:59.952Z,7.67
2019-05-03T14:59:47.696Z,7.33
2019-05-03T15:02:25.156Z,7.60
2019-05-03T15:04:55.740Z,7.97
2019-05-03T15:07:26.956Z,7.87
2019-05-03T15:09:57.113Z,8.20
2019-05-03T15:12:27.223Z,11.93
2019-05-03T15:14:57.438Z,7.23
2019-05-03T15:17:28.001Z,8.00
2019-05-03T15:19:58.544Z,9.10
2019-05-03T15:22:28.682Z,7.73
2019-05-03T15:24:58.784Z,9.50
2019-05-03T15:27:28.957Z,8.50
2019-05-03T15:29:59.103Z,9.07
2019-05-03T15:32:29.542Z,9.40
2019-05-03T15:34:59.878Z,9.63
2019-05-03T15:37:30.055Z,9.60
2019-05-03T15:40:00.508Z,10.37
2019-05-03T15:42:31.224Z,8.90
2019-05-03T15:45:14.582Z,10.50
2019-05-03T15:48:04.505Z,8.33
2019-05-03T15:50:35.600Z,10.00
2019-05-03T15:53:06.116Z,9.73
2019-05-03T15:55:36.434Z,8.70
2019-05-03T15:58:06.594Z,13.40
2019-05-03T16:00:36.912Z,9.77
2019-05-03T16:03:08.931Z,9.50
2019-05-03T16:05:38.838Z,8.80
2019-05-03T16:08:08.983Z,9.67
2019-05-03T16:10:39.059Z,12.67
2019-05-03T16:13:09.954Z,10.60
2019-05-03T16:15:40.098Z,9.50
2019-05-03T16:18:10.296Z,9.17
2019-05-03T16:20:40.426Z,11.03
2019-05-03T16:23:10.579Z,10.47
2019-05-03T16:25:41.160Z,8.50
2019-05-03T16:28:24.834Z,9.37
2019-05-03T16:30:58.691Z,8.50
2019-05-03T16:33:28.860Z,11.57
2019-05-03T16:35:59.352Z,10.60
2019-05-03T16:38:29.524Z,9.17
2019-05-03T16:41:00.512Z,9.23
2019-05-03T16:43:31.097Z,9.13
2019-05-03T16:46:01.268Z,8.40
2019-05-03T16:48:31.495Z,8.70
2019-05-03T16:51:01.716Z,8.90
2019-05-03T16:53:31.919Z,9.40
2019-05-03T16:56:03.426Z,11.50
2019-05-03T16:58:35.359Z,9.83
2019-05-03T17:01:05.904Z,10.23
2019-05-03T17:03:42.578Z,8.90
2019-05-03T17:06:46.980Z,9.17
2019-05-03T17:09:35.329Z,8.73
2019-05-03T17:12:09.412Z,8.40
2019-05-03T17:14:39.584Z,11.63
2019-05-03T17:17:11.696Z,11.10
2019-05-03T17:19:41.945Z,10.23
2019-05-03T17:22:12.272Z,9.90
2019-05-03T17:24:44.346Z,12.23
2019-05-03T17:27:15.454Z,9.93
2019-05-03T17:29:45.724Z,8.83
2019-05-03T17:32:16.215Z,11.23
2019-05-03T17:34:47.557Z,9.47
2019-05-03T17:37:18.080Z,11.73
2019-05-03T17:40:05.289Z,10.63
2019-05-03T17:42:54.793Z,12.93
2019-05-03T17:45:31.234Z,11.00
2019-05-03T17:48:01.468Z,11.27
2019-05-03T17:50:31.839Z,18.03
2019-05-03T17:53:17.677Z,11.37
2019-05-03T17:56:00.032Z,13.80
2019-05-03T17:58:55.453Z,13.33
2019-05-03T18:01:35.323Z,13.63
2019-05-03T18:04:12.297Z,12.70
2019-05-03T18:06:50.699Z,12.83
2019-05-03T18:09:25.667Z,14.37
2019-05-03T18:11:58.330Z,14.13
2019-05-03T18:14:29.014Z,12.30
2019-05-03T18:16:59.213Z,11.60
2019-05-03T18:19:29.448Z,12.70
2019-05-03T18:22:00.571Z,12.70
2019-05-03T18:24:31.091Z,12.97
2019-05-03T18:27:01.357Z,13.07
2019-05-03T18:29:31.563Z,13.40
2019-05-03T18:32:01.732Z,12.77
2019-05-03T18:34:31.872Z,12.27
2019-05-03T18:37:02.142Z,13.43
2019-05-03T18:39:32.374Z,17.00
2019-05-03T18:42:04.917Z,13.73
2019-05-03T18:44:44.937Z,15.70
2019-05-03T18:47:19.074Z,13.60
2019-05-03T18:49:49.604Z,14.40
2019-05-03T18:52:19.701Z,14.97
2019-05-03T18:54:49.793Z,15.23
2019-05-03T18:57:20.137Z,15.77
2019-05-03T18:59:50.578Z,13.63
2019-05-03T19:02:21.156Z,12.40
2019-05-03T19:04:55.022Z,12.67
2019-05-03T19:07:49.932Z,15.97
2019-05-03T19:10:57.351Z,14.47
2019-05-03T19:13:31.116Z,14.43
2019-05-03T19:16:06.376Z,14.37
2019-05-03T19:18:38.115Z,14.20
2019-05-03T19:21:08.557Z,27.10
2019-05-03T19:23:39.460Z,26.40
2019-05-03T19:26:09.639Z,25.80
2019-05-03T19:28:39.829Z,17.97
2019-05-03T19:31:10.736Z,20.93
2019-05-03T19:33:41.315Z,16.10
2019-05-03T19:36:11.807Z,20.90
2019-05-03T19:38:42.045Z,19.57
2019-05-03T19:41:12.221Z,18.80
2019-05-03T19:43:44.446Z,15.80
2019-05-03T19:46:16.585Z,16.90
2019-05-03T19:48:47.458Z,16.83
2019-05-03T19:51:17.626Z,15.20
2019-05-03T19:53:52.584Z,17.73
2019-05-03T19:56:25.340Z,16.07
2019-05-03T19:59:04.787Z,15.90
2019-05-03T20:01:47.546Z,15.50
2019-05-03T20:04:36.667Z,22.90
2019-05-03T20:07:40.928Z,16.27
2019-05-03T20:10:11.867Z,13.03
2019-05-03T20:12:42.358Z,14.33
2019-05-03T20:15:14.476Z,13.23
2019-05-03T20:17:54.652Z,14.03
2019-05-03T20:20:16.923Z,13.30
2019-05-03T20:22:47.707Z,18.30
2019-05-03T20:25:18.723Z,15.03
2019-05-03T20:27:48.868Z,14.30
2019-05-03T20:30:19.247Z,16.07
2019-05-03T20:32:49.393Z,13.20
2019-05-03T20:35:24.952Z,13.20
2019-05-03T20:37:55.434Z,13.63
2019-05-03T20:40:26.383Z,15.97
2019-05-03T20:43:06.443Z,26.07
2019-05-03T20:46:10.760Z,24.57
2019-05-03T20:48:44.816Z,18.20
2019-05-03T20:51:15.285Z,16.63
2019-05-03T20:53:45.583Z,16.17
2019-05-03T20:56:15.733Z,14.00
2019-05-03T20:58:45.970Z,18.73
2019-05-03T21:01:16.130Z,15.70
2019-05-03T21:03:46.307Z,12.57
2019-05-03T21:06:16.457Z,14.60
2019-05-03T21:08:52.946Z,13.30
2019-05-03T21:11:20.199Z,13.77
2019-05-03T21:13:50.403Z,14.50
2019-05-03T21:16:48.725Z,13.90
2019-05-03T21:19:35.285Z,13.53
2019-05-03T21:22:09.533Z,14.83
2019-05-03T21:24:45.432Z,14.90
2019-05-03T21:27:16.149Z,14.60
2019-05-03T21:29:55.051Z,13.40
2019-05-03T21:32:25.211Z,14.70
2019-05-03T21:34:55.885Z,14.40
2019-05-03T21:37:26.832Z,14.00
2019-05-03T21:39:56.969Z,14.80
2019-05-03T21:42:27.497Z,16.40
2019-05-03T21:44:57.647Z,15.67
2019-05-03T21:47:40.686Z,14.30
2019-05-03T21:50:14.732Z,15.13
2019-05-03T21:52:46.103Z,17.43
2019-05-03T21:55:16.258Z,16.07
2019-05-03T21:57:46.888Z,17.83
2019-05-03T22:00:18.132Z,16.50
2019-05-03T22:02:50.217Z,17.37
2019-05-03T22:05:20.660Z,15.80
2019-05-03T22:07:51.029Z,17.03
2019-05-03T22:10:21.773Z,17.70
2019-05-03T22:12:52.207Z,16.50
2019-05-03T22:15:47.055Z,17.90
2019-05-03T22:18:24.738Z,17.23
2019-05-03T22:21:05.644Z,15.37
2019-05-03T22:23:56.123Z,16.23
2019-05-03T22:26:45.307Z,15.87
2019-05-03T22:29:17.160Z,15.20
2019-05-03T22:31:47.865Z,15.63
2019-05-03T22:34:18.414Z,15.67
2019-05-03T22:36:48.474Z,15.40
2019-05-03T22:39:18.645Z,15.00
2019-05-03T22:41:48.781Z,17.70
2019-05-03T22:44:19.310Z,17.40
2019-05-03T22:46:49.439Z,14.03
2019-05-03T22:49:19.949Z,14.70
2019-05-03T22:51:50.465Z,15.30
2019-05-03T22:54:21.125Z,17.60
2019-05-03T22:56:51.639Z,15.23
2019-05-03T22:59:21.797Z,16.87
2019-05-03T23:01:54.481Z,14.77
2019-05-03T23:04:25.479Z,14.27
2019-05-03T23:06:55.917Z,13.53
2019-05-03T23:09:26.127Z,15.27
2019-05-03T23:11:56.185Z,14.50
2019-05-03T23:14:26.362Z,14.93
2019-05-03T23:16:56.890Z,15.20
2019-05-03T23:19:27.025Z,14.20
2019-05-03T23:22:02.467Z,17.10
2019-05-03T23:24:35.081Z,21.40
2019-05-03T23:27:05.264Z,17.67
2019-05-03T23:29:35.787Z,19.17
2019-05-03T23:32:05.932Z,14.70
2019-05-03T23:34:36.082Z,14.60
2019-05-03T23:37:06.224Z,16.10
2019-05-03T23:39:36.373Z,15.10
2019-05-03T23:42:06.591Z,14.97
2019-05-03T23:44:36.754Z,15.10
2019-05-03T23:47:25.219Z,13.33
2019-05-03T23:49:55.624Z,15.57
2019-05-03T23:52:35.717Z,14.83
2019-05-03T23:55:19.294Z,16.07
2019-05-03T23:57:49.455Z,14.07
